Time;durP1;ratioP1;P1;durP2;ratioP2;P2;SDS_P1;SDS_P2;PMS_P1;PMS_P2;Temp;Humidity;BMP_temperature;BMP_pressure;BME280_temperature;BME280_humidity;BME280_pressure;Samples;Min_cycle;Max_cycle;Signal;HPM_P1;HPM_P2
2022/09/22 00:00:26;;;;;;;2.70;1.95;;;8.10;99.90;;;;;;5052758;28;20053;-65
2022/09/22 00:02:55;;;;;;;2.10;1.90;;;8.00;99.90;;;;;;5051303;28;20057;-65
2022/09/22 00:05:23;;;;;;;3.30;2.17;;;8.00;99.90;;;;;;5051563;28;20052;-66
2022/09/22 00:07:49;;;;;;;3.58;1.77;;;8.10;99.90;;;;;;5051610;28;20103;-65
2022/09/22 00:10:14;;;;;;;4.05;2.63;;;7.90;99.90;;;;;;5052507;28;20037;-65
2022/09/22 00:12:40;;;;;;;3.28;2.03;;;;;;;;;;5034782;28;20040;-65
2022/09/22 00:15:07;;;;;;;4.07;2.28;;;7.80;99.90;;;;;;5052681;28;20036;-65
2022/09/22 00:17:33;;;;;;;5.03;2.15;;;7.80;99.90;;;;;;5052690;28;20048;-65
2022/09/22 00:19:59;;;;;;;3.28;1.77;;;;;;;;;;5051480;28;20041;-66
2022/09/22 00:22:24;;;;;;;4.50;2.63;;;7.80;99.90;;;;;;5051274;28;20414;-65
2022/09/22 00:24:51;;;;;;;2.67;2.20;;;7.80;99.90;;;;;;5051454;28;20127;-65
2022/09/22 00:27:17;;;;;;;2.63;1.63;;;7.80;99.90;;;;;;5052692;28;20040;-65
2022/09/22 00:29:42;;;;;;;3.25;2.00;;;7.70;99.90;;;;;;5051265;28;20037;-65
2022/09/22 00:32:08;;;;;;;2.97;2.38;;;7.80;99.90;;;;;;5052529;28;20057;-65
2022/09/22 00:34:34;;;;;;;2.97;1.90;;;7.90;99.90;;;;;;5052453;28;20394;-65
2022/09/22 00:36:59;;;;;;;3.15;2.30;;;7.60;99.90;;;;;;5052650;28;20564;-65
2022/09/22 00:39:27;;;;;;;3.10;1.98;;;7.70;99.90;;;;;;5052302;28;20572;-65
2022/09/22 00:41:53;;;;;;;2.58;1.80;;;7.60;99.90;;;;;;5052910;28;20044;-65
2022/09/22 00:44:37;;;;;;;3.70;1.70;;;7.50;99.90;;;;;;5052393;28;20515;-65
2022/09/22 00:47:02;;;;;;;2.08;1.88;;;7.50;99.90;;;;;;5053940;28;20049;-65
2022/09/22 00:49:45;;;;;;;2.80;2.10;;;7.50;99.90;;;;;;5052392;28;20068;-65
2022/09/22 00:52:14;;;;;;;2.03;1.80;;;7.60;99.90;;;;;;5038872;28;20041;-65
2022/09/22 00:54:39;;;;;;;2.65;1.67;;;7.40;99.90;;;;;;5051077;28;20132;-65
2022/09/22 00:57:17;;;;;;;2.42;2.10;;;7.40;99.90;;;;;;5050990;28;20481;-65
2022/09/22 00:59:45;;;;;;;5.28;1.88;;;7.30;99.90;;;;;;5051097;28;20120;-65
2022/09/22 01:02:11;;;;;;;2.13;1.92;;;7.40;99.90;;;;;;5050569;28;20061;-65
2022/09/22 01:04:37;;;;;;;2.78;1.40;;;7.30;99.90;;;;;;5051142;28;20056;-65
2022/09/22 01:07:03;;;;;;;4.97;1.60;;;7.10;99.90;;;;;;5052417;28;20045;-65
2022/09/22 01:09:31;;;;;;;1.98;1.70;;;7.10;99.90;;;;;;5052412;28;20072;-65
2022/09/22 01:11:59;;;;;;;2.15;1.70;;;7.10;99.90;;;;;;5055133;28;20041;-65
2022/09/22 01:14:48;;;;;;;2.10;1.80;;;6.90;99.90;;;;;;5054512;28;20041;-65
2022/09/22 01:17:16;;;;;;;4.68;1.88;;;7.00;99.90;;;;;;5054469;28;20052;-65
2022/09/22 01:19:58;;;;;;;3.70;1.70;;;7.00;99.90;;;;;;5055609;28;20403;-65
2022/09/22 01:23:04;;;;;;;2.45;1.50;;;6.80;99.90;;;;;;5054571;28;20044;-65
2022/09/22 01:25:54;;;;;;;5.97;1.42;;;6.90;99.90;;;;;;5054389;28;20063;-65
2022/09/22 01:28:41;;;;;;;4.05;1.33;;;6.80;99.90;;;;;;5024080;28;20045;-65
2022/09/22 01:31:32;;;;;;;2.58;1.38;;;6.90;99.90;;;;;;5054041;28;20133;-65
2022/09/22 01:34:23;;;;;;;1.77;1.58;;;6.80;99.90;;;;;;5054368;28;20514;-65
2022/09/22 01:36:55;;;;;;;4.78;1.75;;;6.80;99.90;;;;;;5054011;28;20041;-66
2022/09/22 01:39:40;;;;;;;4.00;1.73;;;6.80;99.90;;;;;;5054094;28;20124;-65
2022/09/22 01:42:09;;;;;;;5.35;1.60;;;6.80;99.90;;;;;;5055470;28;20124;-65
2022/09/22 01:44:47;;;;;;;2.75;1.58;;;6.90;99.90;;;;;;5053921;28;20526;-65
2022/09/22 01:47:18;;;;;;;2.45;1.40;;;6.80;99.90;;;;;;5041527;28;20045;-65
2022/09/22 01:50:04;;;;;;;3.42;1.50;;;6.90;99.90;;;;;;5055013;28;20047;-65
2022/09/22 01:52:32;;;;;;;2.50;1.40;;;6.80;99.90;;;;;;5053760;28;20049;-65
2022/09/22 01:55:22;;;;;;;2.13;1.80;;;6.90;99.90;;;;;;5055105;28;20116;-65
2022/09/22 01:57:57;;;;;;;4.30;1.80;;;6.80;99.90;;;;;;5053842;28;20040;-65
2022/09/22 02:00:23;;;;;;;3.33;1.50;;;6.70;99.90;;;;;;5055036;28;20040;-65
2022/09/22 02:02:51;;;;;;;1.70;1.45;;;6.70;99.90;;;;;;5054606;28;20132;-65
2022/09/22 02:05:23;;;;;;;1.95;1.42;;;6.60;99.90;;;;;;5053588;28;20045;-65
2022/09/22 02:07:52;;;;;;;3.60;1.90;;;;;;;;;;5054975;28;20044;-65
2022/09/22 02:10:24;;;;;;;2.33;1.65;;;6.30;99.90;;;;;;5054762;28;20052;-65
2022/09/22 02:12:51;;;;;;;2.45;1.58;;;6.30;99.90;;;;;;5053309;28;20045;-65
2022/09/22 02:18:12;;;;;;;2.72;2.05;;;6.30;99.90;;;;;;5053368;28;20098;-65
2022/09/22 02:20:39;;;;;;;2.13;1.38;;;6.40;99.90;;;;;;5053625;28;20040;-65
2022/09/22 02:23:05;;;;;;;2.50;1.50;;;6.30;99.90;;;;;;5054407;28;20037;-65
2022/09/22 02:25:31;;;;;;;2.47;1.55;;;6.30;99.90;;;;;;5053180;28;20072;-65
2022/09/22 02:27:58;;;;;;;2.50;1.70;;;6.30;99.90;;;;;;5054334;28;20136;-65
2022/09/22 02:30:25;;;;;;;2.03;1.42;;;6.30;99.90;;;;;;5054192;28;20128;-65
2022/09/22 02:32:54;;;;;;;2.97;1.65;;;6.30;99.90;;;;;;5053201;28;20047;-65
2022/09/22 02:35:22;;;;;;;1.67;1.42;;;6.10;99.90;;;;;;5053050;28;20480;-65
2022/09/22 02:37:56;;;;;;;4.53;1.85;;;6.40;99.90;;;;;;5053073;28;20037;-64
2022/09/22 02:40:55;;;;;;;4.72;1.85;;;6.30;99.90;;;;;;5041285;28;20041;-65
2022/09/22 02:43:24;;;;;;;4.95;2.40;;;6.30;99.90;;;;;;5047555;28;20045;-65
2022/09/22 02:46:03;;;;;;;2.63;1.67;;;6.50;99.90;;;;;;5052978;28;20431;-65
2022/09/22 02:48:34;;;;;;;2.83;2.00;;;6.50;99.90;;;;;;5052793;28;20048;-65
2022/09/22 02:51:00;;;;;;;4.18;1.67;;;6.40;99.90;;;;;;5053891;28;20102;-65
2022/09/22 02:53:26;;;;;;;3.67;1.70;;;6.20;99.90;;;;;;5052701;28;20044;-65
2022/09/22 02:55:51;;;;;;;4.22;1.67;;;6.10;99.90;;;;;;5054039;28;20041;-65
2022/09/22 02:58:17;;;;;;;5.28;1.70;;;6.30;99.90;;;;;;5053971;28;20037;-65
2022/09/22 03:00:44;;;;;;;2.97;1.80;;;6.30;99.90;;;;;;5053600;28;20032;-65
2022/09/22 03:03:10;;;;;;;2.78;1.60;;;6.30;99.90;;;;;;5053801;28;20102;-65
2022/09/22 03:05:36;;;;;;;3.53;2.00;;;6.20;99.90;;;;;;5053587;28;20507;-65
2022/09/22 03:08:02;;;;;;;2.30;2.00;;;6.30;99.90;;;;;;5052455;28;20051;-65
2022/09/22 03:10:28;;;;;;;4.57;2.00;;;;;;;;;;5039380;28;20041;-64
2022/09/22 03:12:56;;;;;;;2.72;1.90;;;6.30;99.90;;;;;;5053670;28;20037;-65
2022/09/22 03:15:21;;;;;;;2.28;1.63;;;6.40;99.90;;;;;;5053693;28;20435;-65
2022/09/22 03:17:47;;;;;;;5.28;2.08;;;6.20;99.90;;;;;;5052337;28;20083;-65
2022/09/22 03:20:14;;;;;;;4.28;2.05;;;6.40;99.90;;;;;;5053439;28;20064;-65
2022/09/22 03:22:40;;;;;;;4.07;2.20;;;6.30;99.90;;;;;;5052194;28;20032;-65
2022/09/22 03:25:10;;;;;;;6.32;2.65;;;6.50;99.90;;;;;;5052200;28;20039;-65
2022/09/22 03:27:36;;;;;;;4.15;2.05;;;6.50;99.90;;;;;;5039455;28;20116;-65
2022/09/22 03:30:04;;;;;;;3.15;1.67;;;6.40;99.90;;;;;;5053364;28;20040;-65
2022/09/22 03:32:30;;;;;;;3.58;2.05;;;6.30;99.90;;;;;;5038601;28;20041;-65
2022/09/22 03:34:57;;;;;;;3.75;2.40;;;6.40;99.90;;;;;;5051802;28;20029;-65
2022/09/22 03:37:22;;;;;;;6.40;1.90;;;6.20;99.90;;;;;;5053153;28;20399;-65
2022/09/22 03:39:48;;;;;;;3.60;1.85;;;6.20;99.90;;;;;;5039275;28;20033;-65
2022/09/22 03:42:13;;;;;;;8.90;2.22;;;6.10;99.90;;;;;;5051693;28;20029;-65
2022/09/22 03:44:39;;;;;;;2.95;1.75;;;6.10;99.90;;;;;;5062494;28;20098;-65
2022/09/22 03:47:05;;;;;;;2.75;1.95;;;6.10;99.90;;;;;;5051732;28;20398;-65
2022/09/22 03:49:30;;;;;;;3.42;1.90;;;6.00;99.90;;;;;;5053086;28;20036;-65
2022/09/22 03:51:56;;;;;;;3.08;2.05;;;6.10;99.90;;;;;;5052560;28;20047;-65
2022/09/22 03:54:22;;;;;;;4.22;2.35;;;6.10;99.90;;;;;;5053151;28;20111;-65
2022/09/22 03:56:47;;;;;;;3.15;2.42;;;5.90;99.90;;;;;;5050958;28;20037;-65
2022/09/22 03:59:13;;;;;;;5.70;2.35;;;6.20;99.90;;;;;;5039899;28;20033;-65
2022/09/22 04:01:39;;;;;;;7.68;3.38;;;6.10;99.90;;;;;;5037259;28;20057;-64
2022/09/22 04:04:05;;;;;;;8.65;3.20;;;6.20;99.90;;;;;;5046763;28;20064;-65
2022/09/22 04:06:31;;;;;;;5.45;3.28;;;6.30;99.90;;;;;;5043989;28;20435;-65
2022/09/22 04:08:56;;;;;;;4.88;2.90;;;6.40;99.90;;;;;;5052899;28;20033;-65
2022/09/22 04:11:23;;;;;;;5.22;2.55;;;6.30;99.90;;;;;;5051601;28;20037;-65
2022/09/22 04:13:49;;;;;;;4.50;3.15;;;6.30;99.90;;;;;;5052509;28;20530;-65
2022/09/22 04:16:15;;;;;;;5.97;4.45;;;6.50;99.90;;;;;;5051618;28;20115;-65
2022/09/22 04:18:41;;;;;;;6.63;3.80;;;6.50;99.90;;;;;;5051508;28;20115;-65
2022/09/22 04:21:07;;;;;;;5.53;2.95;;;6.40;99.90;;;;;;5046472;28;20175;-65
2022/09/22 04:23:33;;;;;;;5.03;3.40;;;6.30;99.90;;;;;;5044971;28;20045;-65
2022/09/22 04:26:00;;;;;;;4.50;2.40;;;6.20;99.90;;;;;;5038749;28;20040;-65
2022/09/22 04:28:25;;;;;;;6.10;2.38;;;6.20;99.90;;;;;;5052725;28;20063;-65
2022/09/22 04:30:51;;;;;;;4.10;2.05;;;6.00;99.90;;;;;;5037260;28;20128;-65
2022/09/22 04:33:17;;;;;;;3.33;2.30;;;6.00;99.90;;;;;;5044034;28;20038;-65
2022/09/22 04:35:42;;;;;;;2.70;2.50;;;6.00;99.90;;;;;;5046415;28;20036;-65
2022/09/22 04:38:09;;;;;;;3.20;2.90;;;6.20;99.90;;;;;;5037824;28;20033;-65
2022/09/22 04:40:35;;;;;;;3.95;2.55;;;6.10;99.90;;;;;;5052586;28;20067;-65
2022/09/22 04:43:00;;;;;;;4.30;2.58;;;6.10;99.90;;;;;;5047686;28;20511;-65
2022/09/22 04:45:26;;;;;;;4.93;2.92;;;5.90;99.90;;;;;;5052927;28;20037;-65
2022/09/22 04:47:52;;;;;;;5.32;3.50;;;6.10;99.90;;;;;;5054858;28;20525;-65
2022/09/22 04:50:20;;;;;;;6.20;3.92;;;6.20;99.90;;;;;;5056084;28;20037;-65
2022/09/22 04:52:47;;;;;;;5.35;4.20;;;6.00;99.90;;;;;;5056395;28;20041;-65
2022/09/22 04:55:14;;;;;;;4.15;3.22;;;6.20;99.90;;;;;;5053244;28;20029;-65
2022/09/22 04:57:40;;;;;;;3.65;2.75;;;6.10;99.90;;;;;;5044075;28;20045;-64
2022/09/22 05:00:07;;;;;;;6.72;3.47;;;6.10;99.90;;;;;;5056110;28;20041;-65
2022/09/22 05:02:34;;;;;;;4.13;2.80;;;6.20;99.90;;;;;;5054465;28;20052;-65
2022/09/22 05:05:00;;;;;;;7.65;3.17;;;6.00;99.90;;;;;;5042349;28;20102;-65
2022/09/22 05:07:25;;;;;;;6.95;3.45;;;6.30;99.90;;;;;;5055658;28;20040;-65
2022/09/22 05:09:51;;;;;;;5.85;2.90;;;6.20;99.90;;;;;;5043150;28;20053;-65
2022/09/22 05:12:17;;;;;;;4.40;3.17;;;6.10;99.90;;;;;;5053308;28;20040;-64
2022/09/22 05:14:42;;;;;;;4.63;3.20;;;6.00;99.90;;;;;;5055917;28;20507;-63
2022/09/22 05:17:08;;;;;;;5.80;3.25;;;6.20;99.90;;;;;;5054285;28;20139;-64
2022/09/22 05:19:34;;;;;;;3.30;3.00;;;6.30;99.90;;;;;;5043334;28;20116;-63
2022/09/22 05:21:59;;;;;;;7.20;3.90;;;6.10;99.90;;;;;;5055917;28;20037;-63
2022/09/22 05:24:26;;;;;;;3.78;3.25;;;6.30;99.90;;;;;;5055685;28;20036;-63
2022/09/22 05:26:52;;;;;;;4.40;3.50;;;6.30;99.90;;;;;;5054359;28;20084;-64
2022/09/22 05:29:17;;;;;;;6.38;3.97;;;6.30;99.90;;;;;;5055567;28;20083;-63
2022/09/22 05:31:44;;;;;;;6.35;4.18;;;6.20;99.90;;;;;;5055461;28;20045;-63
2022/09/22 05:34:10;;;;;;;11.48;5.05;;;6.30;99.90;;;;;;5054285;28;20077;-64
2022/09/22 05:36:36;;;;;;;5.57;4.13;;;6.30;99.90;;;;;;5055558;28;20079;-63
2022/09/22 05:39:02;;;;;;;4.82;4.30;;;;;;;;;;5055285;28;20451;-65
2022/09/22 05:41:28;;;;;;;10.20;4.55;;;6.40;99.90;;;;;;5055479;28;20044;-64
2022/09/22 05:43:53;;;;;;;12.80;5.85;;;6.40;99.90;;;;;;5055313;28;20116;-63
2022/09/22 05:46:18;;;;;;;5.90;4.68;;;6.50;99.90;;;;;;5040094;28;20036;-63
2022/09/22 05:48:44;;;;;;;6.03;4.45;;;6.80;99.90;;;;;;5053873;28;20048;-64
2022/09/22 05:51:10;;;;;;;5.68;4.07;;;6.90;99.90;;;;;;5050932;28;20044;-63
2022/09/22 05:53:35;;;;;;;6.68;4.78;;;6.90;99.90;;;;;;5053983;28;20037;-63
2022/09/22 05:56:01;;;;;;;5.13;4.63;;;7.10;99.90;;;;;;5054775;28;20499;-63
2022/09/22 05:58:26;;;;;;;8.85;4.90;;;7.20;99.90;;;;;;5055053;28;20033;-63
2022/09/22 06:00:56;;;;;;;9.05;5.72;;;7.20;99.90;;;;;;5054840;28;20183;-64
2022/09/22 06:03:22;;;;;;;7.97;4.78;;;;;;;;;;5039530;28;20057;-66
2022/09/22 06:05:47;;;;;;;9.20;4.57;;;7.30;99.90;;;;;;5054806;28;20040;-66
2022/09/22 06:08:13;;;;;;;5.20;4.70;;;7.30;99.90;;;;;;5053485;28;20120;-66
2022/09/22 06:10:39;;;;;;;8.73;4.78;;;7.40;99.90;;;;;;5053338;28;20052;-66
2022/09/22 06:13:06;;;;;;;7.85;5.25;;;7.50;99.90;;;;;;5053591;28;20399;-66
2022/09/22 06:15:33;;;;;;;7.35;5.22;;;7.50;99.90;;;;;;5054610;28;20064;-66
2022/09/22 06:17:59;;;;;;;5.05;4.22;;;7.30;99.90;;;;;;5053446;28;20040;-65
2022/09/22 06:20:25;;;;;;;9.00;5.57;;;7.50;99.90;;;;;;5054427;28;20037;-65
2022/09/22 06:22:52;;;;;;;7.70;5.43;;;7.60;99.90;;;;;;5053189;28;20043;-64
2022/09/22 06:25:18;;;;;;;8.27;6.40;;;7.70;99.90;;;;;;5054263;28;20040;-65
2022/09/22 06:27:44;;;;;;;11.68;6.80;;;7.60;99.90;;;;;;5054393;28;20075;-66
2022/09/22 06:30:10;;;;;;;9.75;6.95;;;7.80;99.90;;;;;;5054313;28;20037;-65
2022/09/22 06:32:42;;;;;;;12.60;8.65;;;7.70;99.90;;;;;;5054010;28;20402;-65
2022/09/22 06:35:08;;;;;;;12.95;8.18;;;7.80;99.90;;;;;;5054226;28;20112;-65
2022/09/22 06:37:37;;;;;;;9.90;7.38;;;7.90;99.90;;;;;;5054195;28;20072;-65
2022/09/22 06:40:05;;;;;;;9.00;7.93;;;7.70;99.90;;;;;;5052765;28;20037;-65
2022/09/22 06:42:31;;;;;;;11.10;8.95;;;7.90;99.90;;;;;;5054277;28;20069;-65
2022/09/22 06:44:56;;;;;;;16.48;9.52;;;8.20;99.90;;;;;;5055371;28;20043;-65
2022/09/22 06:47:22;;;;;;;11.55;8.10;;;8.10;99.90;;;;;;5049684;28;20458;-65
2022/09/22 06:49:48;;;;;;;9.95;8.65;;;8.30;99.90;;;;;;5050369;28;20036;-66
2022/09/22 06:52:13;;;;;;;14.50;7.40;;;8.30;99.90;;;;;;5053741;28;20048;-66
2022/09/22 06:54:40;;;;;;;10.25;8.52;;;8.40;99.90;;;;;;5052695;28;20420;-66
2022/09/22 06:57:07;;;;;;;9.07;7.70;;;8.70;99.90;;;;;;5052228;28;20041;-67
2022/09/22 06:59:36;;;;;;;10.63;7.60;;;8.70;99.90;;;;;;5041730;28;20041;-66
2022/09/22 07:02:03;;;;;;;8.98;6.85;;;8.80;99.90;;;;;;5050258;28;20052;-66
2022/09/22 07:04:28;;;;;;;8.40;7.40;;;8.90;99.90;;;;;;5053815;28;20045;-65
2022/09/22 07:06:54;;;;;;;8.20;6.40;;;8.90;99.90;;;;;;5053634;28;20531;-65
2022/09/22 07:09:20;;;;;;;8.52;7.05;;;9.10;99.90;;;;;;5052822;28;20522;-65
2022/09/22 07:11:47;;;;;;;9.07;6.18;;;9.10;99.90;;;;;;5053598;28;20066;-65
2022/09/22 07:14:13;;;;;;;10.93;6.45;;;9.10;99.90;;;;;;5053227;28;20083;-64
2022/09/22 07:16:39;;;;;;;10.65;7.60;;;9.40;99.90;;;;;;5052333;28;20437;-64
2022/09/22 07:19:05;;;;;;;11.27;7.90;;;9.40;99.90;;;;;;5052105;28;20029;-64
2022/09/22 07:21:35;;;;;;;13.45;8.60;;;9.60;99.90;;;;;;5053524;28;20048;-65
2022/09/22 07:24:01;;;;;;;10.02;7.93;;;9.80;99.90;;;;;;5051934;28;20053;-65
2022/09/22 07:26:29;;;;;;;11.43;8.48;;;10.00;99.90;;;;;;5051618;28;20114;-66
2022/09/22 07:28:57;;;;;;;9.80;7.25;;;10.20;99.90;;;;;;5052575;28;20037;-66
2022/09/22 07:31:24;;;;;;;12.88;7.45;;;10.80;99.90;;;;;;5052367;28;20420;-65
2022/09/22 07:33:52;;;;;;;9.73;7.43;;;11.20;99.90;;;;;;5052559;28;20029;-66
2022/09/22 07:36:20;;;;;;;17.40;7.63;;;11.80;99.90;;;;;;5051277;28;20083;-66
2022/09/22 07:38:48;;;;;;;9.70;6.82;;;11.80;99.90;;;;;;5052835;28;20047;-66
2022/09/22 07:41:19;;;;;;;9.48;6.90;;;12.00;99.90;;;;;;5050249;28;20441;-66
2022/09/22 07:43:47;;;;;;;8.77;6.65;;;12.20;99.90;;;;;;5046842;28;20041;-65
2022/09/22 07:46:13;;;;;;;9.75;5.30;;;11.90;99.90;;;;;;5039843;28;20041;-64
2022/09/22 07:48:45;;;;;;;8.00;6.22;;;11.80;99.90;;;;;;5048293;28;20052;-64
2022/09/22 07:51:23;;;;;;;6.53;5.88;;;11.80;99.90;;;;;;5047699;28;20045;-65
2022/09/22 07:54:03;;;;;;;8.55;5.68;;;11.80;99.90;;;;;;5052557;28;20041;-66
2022/09/22 07:56:29;;;;;;;9.52;6.32;;;11.80;99.90;;;;;;5052097;28;20044;-65
2022/09/22 07:58:55;;;;;;;7.68;6.80;;;12.00;99.90;;;;;;5051371;28;20040;-65
2022/09/22 08:01:23;;;;;;;7.82;5.75;;;12.00;99.90;;;;;;5051339;28;20651;-65
2022/09/22 08:03:49;;;;;;;10.20;6.50;;;12.20;99.90;;;;;;5052256;28;20037;-65
2022/09/22 08:06:17;;;;;;;12.77;6.25;;;12.30;99.90;;;;;;5051460;28;20045;-65
2022/09/22 08:08:51;;;;;;;8.82;6.10;;;12.30;99.90;;;;;;5052604;28;20037;-65
2022/09/22 08:11:18;;;;;;;9.85;5.60;;;12.40;99.90;;;;;;5041689;28;20033;-64
2022/09/22 08:13:56;;;;;;;8.82;5.18;;;12.80;99.90;;;;;;5052524;28;20112;-65
2022/09/22 08:16:23;;;;;;;8.43;5.53;;;12.70;99.90;;;;;;5050903;28;20055;-65
2022/09/22 08:18:55;;;;;;;6.65;4.88;;;12.80;99.90;;;;;;5050902;28;20518;-64
2022/09/22 08:21:34;;;;;;;6.80;4.55;;;12.90;99.90;;;;;;5056625;28;20051;-65
2022/09/22 08:24:00;;;;;;;8.15;4.70;;;12.90;99.90;;;;;;5056558;28;20112;-64
2022/09/22 08:26:26;;;;;;;9.13;4.57;;;13.10;99.90;;;;;;5054806;28;20048;-64
2022/09/22 08:28:53;;;;;;;7.15;4.93;;;13.30;99.90;;;;;;5055323;28;20442;-64
2022/09/22 08:31:20;;;;;;;8.48;4.10;;;13.40;99.90;;;;;;5055620;28;20088;-65
2022/09/22 08:33:50;;;;;;;10.23;4.68;;;13.50;99.90;;;;;;5056308;28;20032;-64
2022/09/22 08:36:16;;;;;;;7.43;4.47;;;13.60;99.90;;;;;;5056329;28;20068;-64
2022/09/22 08:38:46;;;;;;;5.80;3.80;;;13.70;99.90;;;;;;5056313;28;20076;-64
2022/09/22 08:41:30;;;;;;;6.50;4.38;;;13.70;99.90;;;;;;5055029;28;20052;-64
2022/09/22 08:44:00;;;;;;;7.20;4.30;;;13.70;99.90;;;;;;5057937;28;20083;-64
2022/09/22 08:46:28;;;;;;;6.22;4.32;;;13.80;99.90;;;;;;5057286;28;20033;-64
2022/09/22 08:51:51;;;;;;;8.70;3.85;;;14.30;99.90;;;;;;5052491;28;20530;-64
2022/09/22 08:54:20;;;;;;;7.65;3.45;;;14.80;99.90;;;;;;5054982;28;20033;-64
2022/09/22 08:57:10;;;;;;;6.85;3.28;;;14.70;99.90;;;;;;5053275;28;20038;-65
2022/09/22 08:59:48;;;;;;;4.50;3.40;;;17.40;99.90;;;;;;5045916;28;20052;-65
2022/09/22 09:02:32;;;;;;;5.63;3.10;;;17.30;99.90;;;;;;5054528;28;20060;-64
2022/09/22 09:05:40;;;;;;;7.45;2.95;;;19.20;99.90;;;;;;5056163;28;20056;-65
2022/09/22 09:08:27;;;;;;;3.50;2.60;;;20.70;99.90;;;;;;5056296;28;20041;-65
2022/09/22 09:11:11;;;;;;;5.80;2.83;;;21.70;99.90;;;;;;5041983;28;20049;-65
2022/09/22 09:14:02;;;;;;;6.87;2.73;;;22.20;99.90;;;;;;5055636;28;20495;-62
2022/09/22 09:16:27;;;;;;;4.78;1.90;;;23.00;99.90;;;;;;5055993;28;20263;-65
2022/09/22 09:19:16;;;;;;;3.45;1.90;;;24.20;99.90;;;;;;5040657;28;20045;-65
2022/09/22 09:21:50;;;;;;;4.13;1.48;;;25.00;99.90;;;;;;5043391;28;20114;-65
2022/09/22 09:24:37;;;;;;;6.35;2.03;;;25.50;99.90;;;;;;5052548;28;20505;-65
2022/09/22 09:27:11;;;;;;;4.45;1.85;;;26.00;99.90;;;;;;5054559;28;20505;-65
2022/09/22 09:29:53;;;;;;;4.30;1.40;;;26.40;99.90;;;;;;5040982;28;20041;-65
2022/09/22 09:32:53;;;;;;;4.97;1.77;;;26.70;99.90;;;;;;5054534;28;20041;-65
2022/09/22 09:35:48;;;;;;;2.55;1.52;;;27.00;99.90;;;;;;5054088;28;20048;-65
2022/09/22 09:38:16;;;;;;;7.32;1.98;;;27.50;99.90;;;;;;5034365;28;20610;-65
2022/09/22 09:40:47;;;;;;;3.05;1.45;;;26.60;99.90;;;;;;5041878;28;20095;-64
2022/09/22 09:43:14;;;;;;;4.93;1.73;;;25.40;99.90;;;;;;5053372;28;20037;-65
2022/09/22 09:46:04;;;;;;;5.88;1.88;;;23.70;99.90;;;;;;5055316;28;20044;-64
2022/09/22 09:48:40;;;;;;;3.35;1.85;;;22.00;99.90;;;;;;5055251;28;20048;-65
2022/09/22 09:51:11;;;;;;;3.30;1.35;;;20.70;99.90;;;;;;5051012;28;20040;-65
2022/09/22 09:53:41;;;;;;;5.13;2.10;;;20.30;99.90;;;;;;5054846;28;20029;-64
2022/09/22 09:56:35;;;;;;;4.38;2.13;;;19.60;99.90;;;;;;5055336;28;20041;-64
2022/09/22 10:01:53;;;;;;;7.28;2.30;;;18.80;99.90;;;;;;5054347;28;20410;-64
2022/09/22 10:04:34;;;;;;;6.07;1.85;;;18.80;99.90;;;;;;5045686;28;20046;-65
2022/09/22 10:07:18;;;;;;;6.07;2.28;;;18.80;99.90;;;;;;5049548;28;20094;-65
2022/09/22 10:09:46;;;;;;;7.75;2.22;;;19.00;99.90;;;;;;5054679;28;20486;-64
2022/09/22 10:12:20;;;;;;;7.85;2.70;;;18.60;99.90;;;;;;5054337;28;20058;-64
2022/09/22 10:14:51;;;;;;;6.85;1.90;;;18.70;99.90;;;;;;5026907;28;20060;-64
2022/09/22 10:17:28;;;;;;;6.57;2.42;;;18.50;99.90;;;;;;5051363;28;20044;-65
2022/09/22 10:20:15;;;;;;;6.15;2.90;;;18.60;99.90;;;;;;5054588;28;20479;-64
2022/09/22 10:22:41;;;;;;;5.05;1.90;;;18.40;99.90;;;;;;5047898;28;20033;-64
2022/09/22 10:25:18;;;;;;;4.65;2.10;;;18.50;99.90;;;;;;5044629;28;20048;-65
2022/09/22 10:28:08;;;;;;;7.35;2.90;;;18.20;99.90;;;;;;5054646;28;20037;-65
2022/09/22 10:30:38;;;;;;;8.07;3.20;;;18.30;99.90;;;;;;5052876;28;20057;-64
2022/09/22 10:33:17;;;;;;;6.57;2.97;;;18.20;99.90;;;;;;5042744;28;20487;-64
2022/09/22 10:36:05;;;;;;;5.55;2.80;;;18.00;99.90;;;;;;5053845;28;20040;-64
2022/09/22 10:38:37;;;;;;;5.25;3.65;;;17.90;99.90;;;;;;5053021;28;20033;-65
2022/09/22 10:41:11;;;;;;;8.60;3.05;;;18.00;99.90;;;;;;5054113;28;20044;-64
2022/09/22 10:43:44;;;;;;;4.03;2.30;;;17.80;99.90;;;;;;5043469;28;20128;-64
2022/09/22 10:46:38;;;;;;;8.23;3.30;;;17.70;99.90;;;;;;5042150;28;20045;-64
2022/09/22 10:49:30;;;;;;;7.65;3.85;;;17.80;99.90;;;;;;5040139;28;20049;-65
2022/09/22 10:52:14;;;;;;;8.20;3.22;;;17.60;99.90;;;;;;5051561;28;20450;-64
2022/09/22 10:54:58;;;;;;;9.00;3.55;;;17.70;99.90;;;;;;5054111;28;20043;-64
2022/09/22 10:57:45;;;;;;;10.98;3.97;;;18.00;99.90;;;;;;5040135;28;20396;-65
2022/09/22 11:00:20;;;;;;;6.35;3.20;;;17.90;99.90;;;;;;5053233;28;20040;-64
2022/09/22 11:03:06;;;;;;;5.03;2.80;;;17.70;99.90;;;;;;5053158;28;20057;-64
2022/09/22 11:12:15;;;;;;;6.72;3.55;;;17.30;99.90;;;;;;5047722;28;20052;-64
2022/09/22 11:12:16;;;;;;;9.25;3.55;;;17.30;99.90;;;;;;5053506;28;20126;-64
2022/09/22 11:15:09;;;;;;;7.63;3.92;;;17.40;99.90;;;;;;5020848;28;20143;-64
2022/09/22 11:17:41;;;;;;;5.68;3.80;;;17.30;99.90;;;;;;5050228;28;20556;-64
2022/09/22 11:20:31;;;;;;;9.30;5.20;;;17.40;99.90;;;;;;5051289;28;20045;-64
2022/09/22 11:23:03;;;;;;;8.55;3.67;;;17.40;99.90;;;;;;5048763;28;20068;-64
2022/09/22 11:25:41;;;;;;;7.10;4.00;;;17.50;99.90;;;;;;5052562;28;20108;-64
2022/09/22 11:28:42;;;;;;;7.82;4.50;;;17.50;99.90;;;;;;5050829;28;20049;-64
2022/09/22 11:31:46;;;;;;;9.07;2.97;;;17.60;99.90;;;;;;5051010;28;20564;-63
2022/09/22 11:34:35;;;;;;;7.15;3.50;;;17.40;99.90;;;;;;5040746;28;20041;-64
2022/09/22 11:37:32;;;;;;;6.07;4.30;;;17.60;99.90;;;;;;5052547;28;20033;-63
2022/09/22 11:40:14;;;;;;;10.48;4.30;;;17.90;99.90;;;;;;5048525;28;20398;-64
2022/09/22 11:43:03;;;;;;;5.80;3.45;;;17.70;99.90;;;;;;5051118;28;20113;-63
2022/09/22 11:46:04;;;;;;;7.85;4.10;;;17.60;99.90;;;;;;5053723;28;20146;-64
2022/09/22 11:48:48;;;;;;;12.57;4.18;;;17.40;99.90;;;;;;5044618;28;20076;-63
2022/09/22 11:51:29;;;;;;;6.80;3.70;;;17.40;99.90;;;;;;5051679;28;20040;-63
2022/09/22 11:54:19;;;;;;;9.55;3.33;;;17.50;99.90;;;;;;5037933;28;20040;-63
2022/09/22 11:56:56;;;;;;;11.80;3.80;;;17.60;99.90;;;;;;5051551;28;20126;-64
2022/09/22 11:59:37;;;;;;;8.63;4.07;;;17.60;99.90;;;;;;5032360;28;20091;-63
2022/09/22 12:02:17;;;;;;;4.78;3.20;;;17.80;99.90;;;;;;5034971;28;20056;-64
2022/09/22 12:04:50;;;;;;;7.88;3.63;;;17.80;99.90;;;;;;5032462;28;20048;-63
2022/09/22 12:07:49;;;;;;;6.45;3.38;;;17.80;99.90;;;;;;5045770;28;20438;-63
2022/09/22 12:10:24;;;;;;;6.05;3.38;;;17.70;99.90;;;;;;5039949;28;20668;-64
2022/09/22 12:12:51;;;;;;;7.00;3.80;;;17.50;99.90;;;;;;5044162;28;20048;-64
2022/09/22 12:15:39;;;;;;;9.10;3.38;;;17.50;99.90;;;;;;5039631;28;20033;-64
2022/09/22 12:18:23;;;;;;;7.25;2.75;;;17.80;99.90;;;;;;5032460;28;20096;-64
2022/09/22 12:21:09;;;;;;;8.50;2.70;;;17.90;99.90;;;;;;5043367;28;20518;-62
2022/09/22 12:23:40;;;;;;;11.32;3.38;;;17.90;99.90;;;;;;5067772;28;20045;-64
2022/09/22 12:26:32;;;;;;;11.48;3.90;;;17.80;99.90;;;;;;5051797;28;20037;-64
2022/09/22 12:29:07;;;;;;;6.60;2.40;;;17.90;99.90;;;;;;5051137;28;20433;-63
2022/09/22 12:31:35;;;;;;;8.77;3.10;;;17.80;99.90;;;;;;5051209;28;20087;-64
2022/09/22 12:34:04;;;;;;;9.13;2.95;;;17.80;99.90;;;;;;5052435;28;20406;-64
2022/09/22 12:36:37;;;;;;;7.22;2.75;;;17.80;99.90;;;;;;5051359;28;20041;-64
2022/09/22 12:39:24;;;;;;;5.18;2.92;;;17.60;99.90;;;;;;5052513;28;20048;-64
2022/09/22 12:42:01;;;;;;;6.82;2.40;;;17.40;99.90;;;;;;5051259;28;20037;-64
2022/09/22 12:44:45;;;;;;;5.60;2.58;;;17.50;99.90;;;;;;5055527;28;20465;-64
2022/09/22 12:47:25;;;;;;;11.18;2.40;;;17.60;99.90;;;;;;5052429;28;20041;-64
2022/09/22 12:49:56;;;;;;;4.85;1.98;;;17.50;99.90;;;;;;5050963;28;20041;-64
2022/09/22 12:52:39;;;;;;;5.25;1.63;;;17.80;99.90;;;;;;5051049;28;20048;-64
2022/09/22 12:55:28;;;;;;;4.75;1.60;;;17.90;99.90;;;;;;5052401;28;20115;-64
2022/09/22 12:58:03;;;;;;;7.85;2.47;;;17.80;99.90;;;;;;5051155;28;20123;-64
2022/09/22 13:00:39;;;;;;;;;;;18.00;99.90;;;;;;5048241;28;20124;-64
2022/09/22 13:03:23;;;;;;;6.82;2.20;;;17.90;99.90;;;;;;5042782;28;20387;-66
2022/09/22 13:05:51;;;;;;;6.40;2.38;;;17.90;99.90;;;;;;5051040;28;20037;-64
2022/09/22 13:08:29;;;;;;;7.25;2.25;;;17.90;99.90;;;;;;5043350;28;20037;-64
2022/09/22 13:11:03;;;;;;;5.53;2.80;;;17.90;99.90;;;;;;5058002;28;20067;-64
2022/09/22 13:13:37;;;;;;;8.27;2.27;;;18.20;99.90;;;;;;5055981;28;20064;-64
2022/09/22 13:16:14;;;;;;;5.28;2.40;;;17.80;99.90;;;;;;5041220;28;20304;-64
2022/09/22 13:18:44;;;;;;;4.20;2.30;;;17.80;99.90;;;;;;5054695;28;20394;-65
2022/09/22 13:21:12;;;;;;;7.45;2.50;;;17.60;99.90;;;;;;5054276;28;20045;-64
2022/09/22 13:23:53;;;;;;;6.40;2.75;;;17.60;99.90;;;;;;5053515;28;20041;-64
2022/09/22 13:26:31;;;;;;;8.57;2.05;;;18.00;99.90;;;;;;5053389;28;20049;-65
2022/09/22 13:29:03;;;;;;;5.90;2.60;;;17.80;99.90;;;;;;5054019;28;20037;-64
2022/09/22 13:31:42;;;;;;;4.93;2.50;;;17.60;99.90;;;;;;5055510;28;20056;-64